Airfield :
LOGIN :

Register | Disclaimer

   EN    FR    IT 

 










Legend :    VFR   Marginal VFR   IFR   Intensive IFR   Very Intensive IFR
Visi :
Ceiling :
>= 8 km
>= 3000ft
5 to 8 km
1000 to 3000 ft
1500m to 5 km
500 to 1000 ft
800 to 1500m
200 to 500 ft
< 800m
< 200 ft
Symbols :   Thunderstorms  Fog  Heavy snow  Heavy precipitations  Wind > 20 kt
SIGMETs :     Misc.  Thunderstorms  Icing  Turbulence  Mountain Waves  Volcanic Ashes






- Airport Elevation : 278 ft
- IATA code : RJK


LDRI - Rijeka

CURRENT METAR :
  • 241330Z VRB03KT CAVOK 12/03 Q1027

EXPIRED METARs :
  • 241300Z VRB05KT CAVOK 12/02 Q1027
  • 241230Z VRB03KT CAVOK 12/02 Q1027
  • 241200Z 12004KT 070V180 CAVOK 12/02 Q1028
  • 241130Z VRB03KT CAVOK 11/02 Q1028
  • 241100Z 12004KT 070V180 CAVOK 12/01 Q1028

TAF TAF LDRI
Valid from the 24 at 12:00 until the 25 at 12:00 UTC


241125Z 2412/2512 12005KT 9999 SCT030 TX12/2412Z TN07/2422Z
PROB40
TEMPO 2503/2512 4000 RA BKN014



MET'MAP, your aeronautical weather chart ! - Copyright ORBIFLY December 2007 - Disclaimer

ORBIFLY MET'MAP TEAM :

Programming & Development : Alexandra Zaïnal
Concept & original design : Baudouin d'Aumeries
Assistance for programming : Marc-Olivier Méhu
Technical & hardware support : Manuel Goepfert

Contact : metmap@orbifly.com




SOURCES & CREDITS :

   NOAA